sensor_id;sensor_type;location;lat;lon;timestamp;pressure;altitude;pressure_sealevel;temperature;humidity
59971;BME280;45825;45.434;9.116;2023-03-01T00:00:11;100770.06;;;6.51;71.29
59971;BME280;45825;45.434;9.116;2023-03-01T00:02:37;100775.25;;;6.52;71.63
59971;BME280;45825;45.434;9.116;2023-03-01T00:05:02;100776.09;;;6.53;71.68
59971;BME280;45825;45.434;9.116;2023-03-01T00:07:28;100767.28;;;6.57;71.00
59971;BME280;45825;45.434;9.116;2023-03-01T00:09:53;100767.13;;;6.62;71.59
59971;BME280;45825;45.434;9.116;2023-03-01T00:12:19;100771.75;;;6.52;71.58
59971;BME280;45825;45.434;9.116;2023-03-01T00:14:44;100759.44;;;6.57;71.67
59971;BME280;45825;45.434;9.116;2023-03-01T00:17:10;100764.66;;;6.57;72.01
59971;BME280;45825;45.434;9.116;2023-03-01T00:19:35;100768.47;;;6.45;72.21
59971;BME280;45825;45.434;9.116;2023-03-01T00:22:00;100758.75;;;6.50;72.08
59971;BME280;45825;45.434;9.116;2023-03-01T00:24:26;100756.88;;;6.54;72.36
59971;BME280;45825;45.434;9.116;2023-03-01T00:26:55;100763.78;;;6.56;71.92
59971;BME280;45825;45.434;9.116;2023-03-01T00:29:22;100756.75;;;6.59;71.17
59971;BME280;45825;45.434;9.116;2023-03-01T00:31:47;100756.81;;;6.57;71.17
59971;BME280;45825;45.434;9.116;2023-03-01T00:34:13;100761.16;;;6.56;71.53
59971;BME280;45825;45.434;9.116;2023-03-01T00:36:38;100754.34;;;6.52;71.69
59971;BME280;45825;45.434;9.116;2023-03-01T00:39:05;100756.44;;;6.39;72.01
59971;BME280;45825;45.434;9.116;2023-03-01T00:41:32;100761.78;;;6.36;72.19
59971;BME280;45825;45.434;9.116;2023-03-01T00:43:59;100751.84;;;6.48;71.46
59971;BME280;45825;45.434;9.116;2023-03-01T00:46:26;100744.16;;;6.43;71.36
59971;BME280;45825;45.434;9.116;2023-03-01T00:48:52;100745.75;;;6.47;71.68
59971;BME280;45825;45.434;9.116;2023-03-01T00:51:27;100748.22;;;6.52;71.28
59971;BME280;45825;45.434;9.116;2023-03-01T00:53:54;100744.69;;;6.54;70.82
59971;BME280;45825;45.434;9.116;2023-03-01T00:56:20;100732.78;;;6.44;71.01
59971;BME280;45825;45.434;9.116;2023-03-01T00:58:46;100731.88;;;6.45;70.38
59971;BME280;45825;45.434;9.116;2023-03-01T01:01:20;100731.13;;;6.41;70.78
59971;BME280;45825;45.434;9.116;2023-03-01T01:03:52;100718.13;;;6.40;70.85
59971;BME280;45825;45.434;9.116;2023-03-01T01:06:20;100729.28;;;6.45;70.94
59971;BME280;45825;45.434;9.116;2023-03-01T01:08:46;100724.16;;;6.42;70.07
59971;BME280;45825;45.434;9.116;2023-03-01T01:11:12;100715.53;;;6.38;70.85
59971;BME280;45825;45.434;9.116;2023-03-01T01:13:38;100718.97;;;6.39;70.69
59971;BME280;45825;45.434;9.116;2023-03-01T01:16:04;100714.59;;;6.41;70.83
59971;BME280;45825;45.434;9.116;2023-03-01T01:18:30;100709.22;;;6.46;70.46
59971;BME280;45825;45.434;9.116;2023-03-01T01:20:55;100701.13;;;6.53;70.13
59971;BME280;45825;45.434;9.116;2023-03-01T01:23:20;100698.66;;;6.49;69.90
59971;BME280;45825;45.434;9.116;2023-03-01T01:25:46;100688.31;;;6.46;70.12
59971;BME280;45825;45.434;9.116;2023-03-01T01:28:11;100685.88;;;6.39;70.09
59971;BME280;45825;45.434;9.116;2023-03-01T01:30:36;100686.25;;;6.27;71.01
59971;BME280;45825;45.434;9.116;2023-03-01T01:33:02;100680.09;;;6.29;71.25
59971;BME280;45825;45.434;9.116;2023-03-01T01:35:27;100681.69;;;6.34;71.12
59971;BME280;45825;45.434;9.116;2023-03-01T01:37:53;100672.97;;;6.33;70.68
59971;BME280;45825;45.434;9.116;2023-03-01T01:40:18;100678.13;;;6.36;70.63
59971;BME280;45825;45.434;9.116;2023-03-01T01:42:43;100668.59;;;6.35;70.88
59971;BME280;45825;45.434;9.116;2023-03-01T01:47:56;100669.19;;;6.43;70.50
59971;BME280;45825;45.434;9.116;2023-03-01T01:50:23;100669.31;;;6.39;70.23
59971;BME280;45825;45.434;9.116;2023-03-01T01:52:50;100656.25;;;6.39;70.45
59971;BME280;45825;45.434;9.116;2023-03-01T01:55:20;100655.19;;;6.45;70.32
59971;BME280;45825;45.434;9.116;2023-03-01T01:57:53;100651.94;;;6.38;70.44
59971;BME280;45825;45.434;9.116;2023-03-01T02:00:22;100656.16;;;6.42;70.30
59971;BME280;45825;45.434;9.116;2023-03-01T02:02:50;100652.69;;;6.41;70.63
59971;BME280;45825;45.434;9.116;2023-03-01T02:05:45;100651.72;;;6.46;71.08
59971;BME280;45825;45.434;9.116;2023-03-01T02:08:13;100658.69;;;6.45;70.62
59971;BME280;45825;45.434;9.116;2023-03-01T02:10:40;100651.88;;;6.39;71.18
59971;BME280;45825;45.434;9.116;2023-03-01T02:13:06;100651.50;;;6.52;71.11
59971;BME280;45825;45.434;9.116;2023-03-01T02:15:33;100646.06;;;6.58;70.90
59971;BME280;45825;45.434;9.116;2023-03-01T02:18:00;100643.38;;;6.60;70.57
59971;BME280;45825;45.434;9.116;2023-03-01T02:20:35;100634.72;;;6.59;70.59
59971;BME280;45825;45.434;9.116;2023-03-01T02:23:03;100630.31;;;6.60;70.85
59971;BME280;45825;45.434;9.116;2023-03-01T02:30:42;100619.81;;;6.34;71.59
59971;BME280;45825;45.434;9.116;2023-03-01T02:33:29;100617.50;;;6.25;71.83
59971;BME280;45825;45.434;9.116;2023-03-01T02:35:59;100628.00;;;6.23;72.13
59971;BME280;45825;45.434;9.116;2023-03-01T02:38:25;100622.06;;;6.18;72.29
59971;BME280;45825;45.434;9.116;2023-03-01T02:40:52;100618.34;;;6.25;72.50
59971;BME280;45825;45.434;9.116;2023-03-01T02:43:22;100622.00;;;6.20;72.88
59971;BME280;45825;45.434;9.116;2023-03-01T02:45:50;100620.16;;;6.23;72.42
59971;BME280;45825;45.434;9.116;2023-03-01T02:48:17;100616.22;;;6.10;72.63
59971;BME280;45825;45.434;9.116;2023-03-01T02:50:55;100615.41;;;6.08;73.26
59971;BME280;45825;45.434;9.116;2023-03-01T02:53:48;100615.66;;;5.98;73.12
59971;BME280;45825;45.434;9.116;2023-03-01T02:56:18;100610.75;;;5.87;73.57
59971;BME280;45825;45.434;9.116;2023-03-01T02:58:44;100607.31;;;5.87;73.85
59971;BME280;45825;45.434;9.116;2023-03-01T03:01:20;100606.53;;;5.83;74.46
59971;BME280;45825;45.434;9.116;2023-03-01T03:03:46;100602.13;;;5.85;74.56
59971;BME280;45825;45.434;9.116;2023-03-01T03:06:12;100602.22;;;5.82;74.17
59971;BME280;45825;45.434;9.116;2023-03-01T03:08:37;100597.28;;;5.73;74.98
59971;BME280;45825;45.434;9.116;2023-03-01T03:11:03;100596.66;;;5.93;73.93
59971;BME280;45825;45.434;9.116;2023-03-01T03:13:28;100588.19;;;5.85;74.74
59971;BME280;45825;45.434;9.116;2023-03-01T03:15:55;100588.69;;;5.98;74.38
59971;BME280;45825;45.434;9.116;2023-03-01T03:18:22;100592.09;;;6.00;73.93
59971;BME280;45825;45.434;9.116;2023-03-01T03:20:48;100584.91;;;5.78;75.06
59971;BME280;45825;45.434;9.116;2023-03-01T03:23:18;100588.06;;;5.90;75.29
59971;BME280;45825;45.434;9.116;2023-03-01T03:25:43;100595.19;;;5.84;75.40
59971;BME280;45825;45.434;9.116;2023-03-01T03:28:09;100580.56;;;5.79;76.08
59971;BME280;45825;45.434;9.116;2023-03-01T03:30:39;100583.94;;;5.82;75.93
59971;BME280;45825;45.434;9.116;2023-03-01T03:33:05;100586.03;;;5.71;75.95
59971;BME280;45825;45.434;9.116;2023-03-01T03:35:34;100589.22;;;5.79;76.25
59971;BME280;45825;45.434;9.116;2023-03-01T03:38:05;100584.31;;;5.70;76.56
59971;BME280;45825;45.434;9.116;2023-03-01T03:40:37;100581.31;;;5.54;77.17
59971;BME280;45825;45.434;9.116;2023-03-01T03:43:03;100575.19;;;5.55;77.03
59971;BME280;45825;45.434;9.116;2023-03-01T03:45:29;100583.13;;;5.50;77.71
59971;BME280;45825;45.434;9.116;2023-03-01T03:47:55;100578.91;;;5.46;78.28
59971;BME280;45825;45.434;9.116;2023-03-01T03:50:20;100585.09;;;5.43;78.72
59971;BME280;45825;45.434;9.116;2023-03-01T03:52:45;100581.47;;;5.48;77.81
59971;BME280;45825;45.434;9.116;2023-03-01T03:55:11;100578.31;;;5.36;78.53
59971;BME280;45825;45.434;9.116;2023-03-01T03:57:38;100578.28;;;5.38;78.80
59971;BME280;45825;45.434;9.116;2023-03-01T04:00:05;100575.34;;;5.49;78.42
59971;BME280;45825;45.434;9.116;2023-03-01T04:02:31;100566.59;;;5.50;77.55
59971;BME280;45825;45.434;9.116;2023-03-01T04:04:56;100572.59;;;5.53;77.90
59971;BME280;45825;45.434;9.116;2023-03-01T04:07:21;100578.34;;;5.65;77.91
59971;BME280;45825;45.434;9.116;2023-03-01T04:09:47;100586.19;;;5.35;78.45
59971;BME280;45825;45.434;9.116;2023-03-01T04:12:12;100572.50;;;5.26;79.43
59971;BME280;45825;45.434;9.116;2023-03-01T04:14:38;100576.16;;;5.21;79.54
59971;BME280;45825;45.434;9.116;2023-03-01T04:17:03;100567.59;;;5.15;80.11
59971;BME280;45825;45.434;9.116;2023-03-01T04:19:33;100571.00;;;5.17;79.89
59971;BME280;45825;45.434;9.116;2023-03-01T04:22:02;100575.44;;;5.14;80.26
59971;BME280;45825;45.434;9.116;2023-03-01T04:24:33;100566.59;;;5.20;80.15
59971;BME280;45825;45.434;9.116;2023-03-01T04:26:58;100564.41;;;5.36;79.40
59971;BME280;45825;45.434;9.116;2023-03-01T04:29:23;100559.03;;;5.40;78.72
59971;BME280;45825;45.434;9.116;2023-03-01T04:31:48;100564.81;;;5.22;79.45
59971;BME280;45825;45.434;9.116;2023-03-01T04:34:14;100559.72;;;5.17;79.77
59971;BME280;45825;45.434;9.116;2023-03-01T04:36:39;100556.13;;;5.21;79.74
59971;BME280;45825;45.434;9.116;2023-03-01T04:39:05;100552.06;;;5.11;80.49
59971;BME280;45825;45.434;9.116;2023-03-01T04:41:38;100556.00;;;5.26;79.36
59971;BME280;45825;45.434;9.116;2023-03-01T04:44:07;100558.91;;;5.15;79.80
59971;BME280;45825;45.434;9.116;2023-03-01T04:46:35;100553.84;;;5.09;79.88
59971;BME280;45825;45.434;9.116;2023-03-01T04:49:01;100555.56;;;5.10;80.38
59971;BME280;45825;45.434;9.116;2023-03-01T04:51:26;100558.28;;;5.07;80.15
59971;BME280;45825;45.434;9.116;2023-03-01T04:53:52;100554.97;;;5.00;81.31
59971;BME280;45825;45.434;9.116;2023-03-01T04:56:17;100556.59;;;5.04;80.81
59971;BME280;45825;45.434;9.116;2023-03-01T04:58:48;100558.94;;;5.13;80.07
59971;BME280;45825;45.434;9.116;2023-03-01T05:01:15;100561.69;;;5.09;80.24
59971;BME280;45825;45.434;9.116;2023-03-01T05:03:46;100567.06;;;5.02;80.65
59971;BME280;45825;45.434;9.116;2023-03-01T05:06:12;100562.97;;;4.94;80.71
59971;BME280;45825;45.434;9.116;2023-03-01T05:08:39;100562.94;;;4.95;81.11
59971;BME280;45825;45.434;9.116;2023-03-01T05:11:05;100560.19;;;5.00;80.46
59971;BME280;45825;45.434;9.116;2023-03-01T05:13:34;100560.75;;;5.11;80.05
59971;BME280;45825;45.434;9.116;2023-03-01T05:16:01;100549.88;;;5.27;79.05
59971;BME280;45825;45.434;9.116;2023-03-01T05:18:28;100557.59;;;5.00;80.13
59971;BME280;45825;45.434;9.116;2023-03-01T05:20:54;100555.13;;;4.94;80.58
59971;BME280;45825;45.434;9.116;2023-03-01T05:23:24;100557.88;;;4.89;81.27
59971;BME280;45825;45.434;9.116;2023-03-01T05:25:50;100563.09;;;4.89;81.92
59971;BME280;45825;45.434;9.116;2023-03-01T05:28:18;100561.47;;;4.85;81.04
59971;BME280;45825;45.434;9.116;2023-03-01T05:30:44;100562.25;;;4.88;81.31
59971;BME280;45825;45.434;9.116;2023-03-01T05:33:10;100567.19;;;4.98;80.63
59971;BME280;45825;45.434;9.116;2023-03-01T05:35:40;100559.44;;;4.95;81.27
59971;BME280;45825;45.434;9.116;2023-03-01T05:38:06;100560.44;;;4.91;81.46
59971;BME280;45825;45.434;9.116;2023-03-01T05:40:33;100564.50;;;5.01;80.88
59971;BME280;45825;45.434;9.116;2023-03-01T05:42:58;100567.75;;;5.09;80.46
59971;BME280;45825;45.434;9.116;2023-03-01T05:45:25;100559.78;;;5.14;79.65
59971;BME280;45825;45.434;9.116;2023-03-01T05:47:51;100553.69;;;5.15;79.58
59971;BME280;45825;45.434;9.116;2023-03-01T05:50:22;100557.38;;;5.08;79.73
59971;BME280;45825;45.434;9.116;2023-03-01T05:52:50;100562.50;;;5.11;79.34
59971;BME280;45825;45.434;9.116;2023-03-01T05:55:17;100557.72;;;4.95;79.74
59971;BME280;45825;45.434;9.116;2023-03-01T05:57:43;100556.06;;;4.91;80.21
59971;BME280;45825;45.434;9.116;2023-03-01T06:00:10;100562.97;;;4.94;79.05
59971;BME280;45825;45.434;9.116;2023-03-01T06:02:36;100559.75;;;4.84;79.38
59971;BME280;45825;45.434;9.116;2023-03-01T06:05:01;100565.41;;;4.67;80.71
59971;BME280;45825;45.434;9.116;2023-03-01T06:07:27;100555.81;;;4.69;80.84
59971;BME280;45825;45.434;9.116;2023-03-01T06:09:52;100556.63;;;4.69;80.11
59971;BME280;45825;45.434;9.116;2023-03-01T06:12:18;100569.69;;;4.69;80.08
59971;BME280;45825;45.434;9.116;2023-03-01T06:14:45;100562.41;;;4.82;78.72
59971;BME280;45825;45.434;9.116;2023-03-01T06:17:10;100564.47;;;4.69;80.11
59971;BME280;45825;45.434;9.116;2023-03-01T06:19:35;100565.09;;;4.79;80.32
59971;BME280;45825;45.434;9.116;2023-03-01T06:22:01;100563.84;;;4.94;80.30
59971;BME280;45825;45.434;9.116;2023-03-01T06:24:26;100577.81;;;4.92;80.79
59971;BME280;45825;45.434;9.116;2023-03-01T06:26:53;100578.56;;;4.95;80.39
59971;BME280;45825;45.434;9.116;2023-03-01T06:29:19;100579.94;;;5.09;79.91
59971;BME280;45825;45.434;9.116;2023-03-01T06:31:44;100578.06;;;5.14;79.43
59971;BME280;45825;45.434;9.116;2023-03-01T06:34:11;100577.94;;;5.18;78.92
59971;BME280;45825;45.434;9.116;2023-03-01T06:36:38;100581.44;;;5.17;78.49
59971;BME280;45825;45.434;9.116;2023-03-01T06:39:04;100582.88;;;5.28;78.40
59971;BME280;45825;45.434;9.116;2023-03-01T06:41:30;100578.44;;;5.31;77.43
59971;BME280;45825;45.434;9.116;2023-03-01T06:43:56;100585.25;;;5.37;77.11
59971;BME280;45825;45.434;9.116;2023-03-01T06:46:22;100586.59;;;5.51;76.89
59971;BME280;45825;45.434;9.116;2023-03-01T06:48:48;100583.94;;;5.52;76.95
59971;BME280;45825;45.434;9.116;2023-03-01T06:51:13;100584.72;;;5.56;76.21
59971;BME280;45825;45.434;9.116;2023-03-01T06:53:38;100580.25;;;5.59;75.13
59971;BME280;45825;45.434;9.116;2023-03-01T06:56:04;100575.44;;;5.76;74.50
59971;BME280;45825;45.434;9.116;2023-03-01T06:58:29;100585.56;;;5.85;72.02
59971;BME280;45825;45.434;9.116;2023-03-01T07:00:54;100578.59;;;5.85;69.67
59971;BME280;45825;45.434;9.116;2023-03-01T07:03:20;100585.13;;;6.00;67.36
59971;BME280;45825;45.434;9.116;2023-03-01T07:05:45;100586.69;;;6.08;64.10
59971;BME280;45825;45.434;9.116;2023-03-01T07:08:10;100581.00;;;6.22;62.83
59971;BME280;45825;45.434;9.116;2023-03-01T07:10:36;100583.69;;;6.20;62.85
59971;BME280;45825;45.434;9.116;2023-03-01T07:13:01;100588.50;;;6.33;62.03
59971;BME280;45825;45.434;9.116;2023-03-01T07:15:27;100586.56;;;6.38;60.80
59971;BME280;45825;45.434;9.116;2023-03-01T07:17:53;100589.03;;;6.42;60.33
59971;BME280;45825;45.434;9.116;2023-03-01T07:20:19;100587.28;;;6.43;59.04
59971;BME280;45825;45.434;9.116;2023-03-01T07:22:47;100582.38;;;6.34;58.78
59971;BME280;45825;45.434;9.116;2023-03-01T07:25:13;100584.59;;;6.19;58.89
59971;BME280;45825;45.434;9.116;2023-03-01T07:27:38;100582.25;;;6.10;58.89
59971;BME280;45825;45.434;9.116;2023-03-01T07:30:04;100586.53;;;6.12;59.25
59971;BME280;45825;45.434;9.116;2023-03-01T07:32:29;100583.06;;;5.82;60.02
59971;BME280;45825;45.434;9.116;2023-03-01T07:34:55;100580.03;;;5.67;60.22
59971;BME280;45825;45.434;9.116;2023-03-01T07:37:20;100593.63;;;5.49;61.82
59971;BME280;45825;45.434;9.116;2023-03-01T07:39:45;100590.59;;;5.32;61.47
59971;BME280;45825;45.434;9.116;2023-03-01T07:42:10;100595.44;;;5.15;60.81
59971;BME280;45825;45.434;9.116;2023-03-01T07:44:36;100587.13;;;5.00;60.78
59971;BME280;45825;45.434;9.116;2023-03-01T07:47:03;100594.41;;;5.21;60.93
59971;BME280;45825;45.434;9.116;2023-03-01T07:49:28;100583.97;;;5.21;60.97
59971;BME280;45825;45.434;9.116;2023-03-01T07:51:54;100577.56;;;5.01;62.02
59971;BME280;45825;45.434;9.116;2023-03-01T07:54:19;100572.69;;;5.20;61.60
59971;BME280;45825;45.434;9.116;2023-03-01T07:56:45;100563.69;;;5.30;61.49
59971;BME280;45825;45.434;9.116;2023-03-01T07:59:10;100568.75;;;5.37;60.21
59971;BME280;45825;45.434;9.116;2023-03-01T08:01:35;100566.53;;;5.53;59.97
59971;BME280;45825;45.434;9.116;2023-03-01T08:04:01;100565.16;;;5.69;59.35
59971;BME280;45825;45.434;9.116;2023-03-01T08:06:27;100565.44;;;5.88;58.82
59971;BME280;45825;45.434;9.116;2023-03-01T08:08:52;100556.38;;;6.00;57.03
59971;BME280;45825;45.434;9.116;2023-03-01T08:11:20;100562.25;;;6.09;57.85
59971;BME280;45825;45.434;9.116;2023-03-01T08:13:47;100558.75;;;6.10;57.79
59971;BME280;45825;45.434;9.116;2023-03-01T08:16:14;100569.56;;;6.26;57.04
59971;BME280;45825;45.434;9.116;2023-03-01T08:18:40;100562.41;;;6.31;57.33
59971;BME280;45825;45.434;9.116;2023-03-01T08:21:08;100557.81;;;6.38;56.48
59971;BME280;45825;45.434;9.116;2023-03-01T08:23:34;100564.81;;;6.37;56.71
59971;BME280;45825;45.434;9.116;2023-03-01T08:26:16;100564.16;;;6.57;56.41
59971;BME280;45825;45.434;9.116;2023-03-01T08:28:42;100558.69;;;6.38;56.18
59971;BME280;45825;45.434;9.116;2023-03-01T08:31:19;100556.69;;;6.47;55.21
59971;BME280;45825;45.434;9.116;2023-03-01T08:33:46;100556.34;;;6.31;55.71
59971;BME280;45825;45.434;9.116;2023-03-01T08:36:26;100563.69;;;6.45;56.11
59971;BME280;45825;45.434;9.116;2023-03-01T08:38:52;100549.81;;;6.42;55.77
59971;BME280;45825;45.434;9.116;2023-03-01T08:41:18;100546.28;;;6.70;55.68
59971;BME280;45825;45.434;9.116;2023-03-01T08:43:43;100543.03;;;6.64;54.77
59971;BME280;45825;45.434;9.116;2023-03-01T08:46:09;100542.03;;;6.66;54.88
59971;BME280;45825;45.434;9.116;2023-03-01T08:48:35;100544.41;;;6.74;54.65
59971;BME280;45825;45.434;9.116;2023-03-01T08:51:14;100542.78;;;6.70;54.86
59971;BME280;45825;45.434;9.116;2023-03-01T08:53:40;100548.66;;;6.77;54.49
59971;BME280;45825;45.434;9.116;2023-03-01T08:56:06;100548.78;;;6.99;53.76
59971;BME280;45825;45.434;9.116;2023-03-01T08:58:32;100541.25;;;6.90;54.26
59971;BME280;45825;45.434;9.116;2023-03-01T09:00:57;100538.72;;;7.12;53.85
59971;BME280;45825;45.434;9.116;2023-03-01T09:03:24;100536.44;;;7.03;53.70
59971;BME280;45825;45.434;9.116;2023-03-01T09:05:49;100536.25;;;7.31;53.16
59971;BME280;45825;45.434;9.116;2023-03-01T09:08:16;100535.31;;;7.56;52.92
59971;BME280;45825;45.434;9.116;2023-03-01T09:10:42;100530.56;;;7.44;52.28
59971;BME280;45825;45.434;9.116;2023-03-01T09:13:07;100525.31;;;7.44;52.20
59971;BME280;45825;45.434;9.116;2023-03-01T09:15:33;100526.28;;;7.41;53.18
59971;BME280;45825;45.434;9.116;2023-03-01T09:17:59;100525.91;;;7.52;52.90
59971;BME280;45825;45.434;9.116;2023-03-01T09:20:24;100517.66;;;7.39;53.39
59971;BME280;45825;45.434;9.116;2023-03-01T09:22:50;100515.41;;;7.52;53.09
59971;BME280;45825;45.434;9.116;2023-03-01T09:25:15;100513.19;;;7.65;54.90
59971;BME280;45825;45.434;9.116;2023-03-01T09:27:40;100503.59;;;7.64;55.49
59971;BME280;45825;45.434;9.116;2023-03-01T09:30:06;100491.50;;;7.61;55.66
59971;BME280;45825;45.434;9.116;2023-03-01T09:32:32;100492.41;;;7.60;56.00
59971;BME280;45825;45.434;9.116;2023-03-01T09:34:57;100490.31;;;7.68;55.82
59971;BME280;45825;45.434;9.116;2023-03-01T09:37:31;100494.19;;;7.82;56.26
59971;BME280;45825;45.434;9.116;2023-03-01T09:39:57;100482.28;;;7.95;55.25
59971;BME280;45825;45.434;9.116;2023-03-01T09:42:22;100479.38;;;8.02;55.76
59971;BME280;45825;45.434;9.116;2023-03-01T09:44:51;100468.88;;;7.81;56.29
59971;BME280;45825;45.434;9.116;2023-03-01T09:47:28;100475.81;;;7.60;56.30
59971;BME280;45825;45.434;9.116;2023-03-01T09:50:11;100471.03;;;7.49;56.27
59971;BME280;45825;45.434;9.116;2023-03-01T09:58:37;100460.31;;;7.33;55.46
59971;BME280;45825;45.434;9.116;2023-03-01T10:01:29;100460.13;;;7.82;55.60
59971;BME280;45825;45.434;9.116;2023-03-01T10:07:05;100441.09;;;8.41;53.50
59971;BME280;45825;45.434;9.116;2023-03-01T10:09:40;100437.53;;;8.21;53.73
59971;BME280;45825;45.434;9.116;2023-03-01T10:12:12;100426.31;;;8.38;52.58
59971;BME280;45825;45.434;9.116;2023-03-01T10:15:03;100417.53;;;8.39;52.70
59971;BME280;45825;45.434;9.116;2023-03-01T10:17:39;100412.50;;;8.34;53.55
59971;BME280;45825;45.434;9.116;2023-03-01T10:22:42;100411.47;;;7.97;53.68
59971;BME280;45825;45.434;9.116;2023-03-01T10:25:14;100400.50;;;8.29;53.53
59971;BME280;45825;45.434;9.116;2023-03-01T10:28:01;100387.50;;;8.67;52.38
59971;BME280;45825;45.434;9.116;2023-03-01T10:30:41;100382.41;;;9.39;51.07
59971;BME280;45825;45.434;9.116;2023-03-01T10:33:28;100388.88;;;10.20;48.99
59971;BME280;45825;45.434;9.116;2023-03-01T10:35:55;100374.38;;;10.80;47.92
59971;BME280;45825;45.434;9.116;2023-03-01T10:38:21;100381.91;;;10.86;47.93
59971;BME280;45825;45.434;9.116;2023-03-01T10:41:05;100383.69;;;10.70;47.16
59971;BME280;45825;45.434;9.116;2023-03-01T10:43:45;100384.56;;;10.19;48.19
59971;BME280;45825;45.434;9.116;2023-03-01T10:51:31;100382.38;;;10.61;48.77
59971;BME280;45825;45.434;9.116;2023-03-01T10:53:56;100379.59;;;10.13;48.44
59971;BME280;45825;45.434;9.116;2023-03-01T10:56:21;100368.06;;;10.33;49.94
59971;BME280;45825;45.434;9.116;2023-03-01T10:59:04;100371.53;;;9.64;49.47
59971;BME280;45825;45.434;9.116;2023-03-01T11:01:32;100365.16;;;9.51;50.71
59971;BME280;45825;45.434;9.116;2023-03-01T11:06:31;100347.75;;;8.56;52.94
59971;BME280;45825;45.434;9.116;2023-03-01T11:08:56;100335.94;;;8.45;54.71
59971;BME280;45825;45.434;9.116;2023-03-01T11:11:32;100326.50;;;8.81;52.66
59971;BME280;45825;45.434;9.116;2023-03-01T11:14:15;100329.41;;;8.75;54.12
59971;BME280;45825;45.434;9.116;2023-03-01T11:16:44;100325.63;;;8.61;53.54
59971;BME280;45825;45.434;9.116;2023-03-01T11:22:01;100307.53;;;8.93;53.34
59971;BME280;45825;45.434;9.116;2023-03-01T11:24:29;100307.22;;;8.63;54.23
59971;BME280;45825;45.434;9.116;2023-03-01T11:26:56;100299.19;;;8.66;53.66
59971;BME280;45825;45.434;9.116;2023-03-01T11:29:37;100296.50;;;8.68;54.67
59971;BME280;45825;45.434;9.116;2023-03-01T11:32:07;100294.59;;;8.71;53.93
59971;BME280;45825;45.434;9.116;2023-03-01T11:34:40;100295.44;;;8.33;54.43
59971;BME280;45825;45.434;9.116;2023-03-01T11:45:11;100284.50;;;9.00;53.78
59971;BME280;45825;45.434;9.116;2023-03-01T11:50:20;100276.78;;;8.78;53.80
59971;BME280;45825;45.434;9.116;2023-03-01T12:01:00;100270.56;;;8.61;53.83
59971;BME280;45825;45.434;9.116;2023-03-01T12:03:46;100268.84;;;8.41;54.60
59971;BME280;45825;45.434;9.116;2023-03-01T12:09:17;100272.13;;;8.46;53.88
59971;BME280;45825;45.434;9.116;2023-03-01T12:17:07;100238.31;;;8.78;53.89
59971;BME280;45825;45.434;9.116;2023-03-01T12:22:32;100231.00;;;8.47;54.70
59971;BME280;45825;45.434;9.116;2023-03-01T12:27:32;100211.28;;;8.94;53.16
59971;BME280;45825;45.434;9.116;2023-03-01T12:30:17;100206.50;;;8.85;53.84
59971;BME280;45825;45.434;9.116;2023-03-01T12:40:51;100197.22;;;8.60;55.03
59971;BME280;45825;45.434;9.116;2023-03-01T12:43:36;100191.84;;;8.80;54.98
59971;BME280;45825;45.434;9.116;2023-03-01T12:51:34;100190.06;;;8.99;54.62
59971;BME280;45825;45.434;9.116;2023-03-01T12:54:28;100209.28;;;8.99;55.14
59971;BME280;45825;45.434;9.116;2023-03-01T12:56:56;100202.56;;;8.93;55.56
59971;BME280;45825;45.434;9.116;2023-03-01T13:02:04;100201.41;;;8.99;55.77
59971;BME280;45825;45.434;9.116;2023-03-01T13:07:32;100217.50;;;9.11;55.64
59971;BME280;45825;45.434;9.116;2023-03-01T13:10:33;100212.66;;;8.84;54.44
59971;BME280;45825;45.434;9.116;2023-03-01T13:15:43;100230.22;;;9.01;55.28
59971;BME280;45825;45.434;9.116;2023-03-01T13:23:26;100219.22;;;8.92;54.34
59971;BME280;45825;45.434;9.116;2023-03-01T13:28:44;100209.97;;;9.03;54.27
59971;BME280;45825;45.434;9.116;2023-03-01T13:33:48;100223.41;;;9.14;55.75
59971;BME280;45825;45.434;9.116;2023-03-01T13:46:46;100214.31;;;9.21;55.37
59971;BME280;45825;45.434;9.116;2023-03-01T13:49:18;100229.91;;;9.25;55.53
59971;BME280;45825;45.434;9.116;2023-03-01T13:51:50;100231.38;;;9.30;55.50
59971;BME280;45825;45.434;9.116;2023-03-01T13:54:25;100230.44;;;9.31;55.14
59971;BME280;45825;45.434;9.116;2023-03-01T13:56:51;100229.66;;;9.29;55.39
59971;BME280;45825;45.434;9.116;2023-03-01T13:59:20;100232.00;;;9.18;55.20
59971;BME280;45825;45.434;9.116;2023-03-01T14:01:54;100235.00;;;9.10;55.37
59971;BME280;45825;45.434;9.116;2023-03-01T14:04:26;100235.94;;;9.09;55.52
59971;BME280;45825;45.434;9.116;2023-03-01T14:07:11;100239.31;;;9.11;55.69
59971;BME280;45825;45.434;9.116;2023-03-01T14:09:40;100243.81;;;9.09;56.41
59971;BME280;45825;45.434;9.116;2023-03-01T14:12:26;100243.81;;;9.09;55.69
59971;BME280;45825;45.434;9.116;2023-03-01T14:17:50;100250.22;;;9.03;55.17
59971;BME280;45825;45.434;9.116;2023-03-01T14:20:27;100248.59;;;9.01;56.34
59971;BME280;45825;45.434;9.116;2023-03-01T14:22:55;100249.72;;;8.95;55.44
59971;BME280;45825;45.434;9.116;2023-03-01T14:28:02;100241.16;;;8.91;56.84
59971;BME280;45825;45.434;9.116;2023-03-01T14:30:33;100257.91;;;8.89;57.77
59971;BME280;45825;45.434;9.116;2023-03-01T14:33:03;100252.50;;;8.92;56.91
59971;BME280;45825;45.434;9.116;2023-03-01T14:35:31;100247.16;;;8.93;56.26
59971;BME280;45825;45.434;9.116;2023-03-01T14:37:58;100253.34;;;8.92;55.55
59971;BME280;45825;45.434;9.116;2023-03-01T14:40:32;100253.72;;;8.85;55.98
59971;BME280;45825;45.434;9.116;2023-03-01T14:43:00;100239.78;;;8.84;57.55
59971;BME280;45825;45.434;9.116;2023-03-01T14:45:28;100253.03;;;8.81;55.34
59971;BME280;45825;45.434;9.116;2023-03-01T14:47:55;100254.09;;;8.77;56.04
59971;BME280;45825;45.434;9.116;2023-03-01T14:50:27;100241.69;;;8.80;54.98
59971;BME280;45825;45.434;9.116;2023-03-01T14:52:59;100238.16;;;8.82;55.01
59971;BME280;45825;45.434;9.116;2023-03-01T14:55:30;100242.75;;;8.76;56.69
59971;BME280;45825;45.434;9.116;2023-03-01T14:57:57;100247.31;;;8.73;56.19